createdAt,value
2023-05-22T00:01:51.901Z,93890.19
2023-05-22T00:04:21.575Z,93885.88
2023-05-22T00:06:49.456Z,93883.63
2023-05-22T00:09:16.566Z,93880.16
2023-05-22T00:11:43.539Z,93884.22
2023-05-22T00:14:10.336Z,93891.13
2023-05-22T00:16:37.045Z,93882.13
2023-05-22T00:19:04.507Z,93888.66
2023-05-22T00:21:34.889Z,93890.97
2023-05-22T00:24:02.428Z,93890.94
2023-05-22T00:26:29.104Z,93891.91
2023-05-22T00:28:55.962Z,93888.88
2023-05-22T00:31:23.388Z,93901.25
2023-05-22T00:33:50.079Z,93885.06
2023-05-22T00:36:18.684Z,93888.13
2023-05-22T00:38:45.418Z,93883.16
2023-05-22T00:41:12.264Z,93881.97
2023-05-22T00:43:39.653Z,93888.53
2023-05-22T00:46:07.841Z,93887.28
2023-05-22T00:48:34.545Z,93899.31
2023-05-22T00:51:01.956Z,93892.31
2023-05-22T00:53:30.455Z,93896.38
2023-05-22T00:55:58.755Z,93902.50
2023-05-22T00:58:27.386Z,93893.38
2023-05-22T01:00:55.539Z,93891.72
2023-05-22T01:03:27.014Z,93896.38
2023-05-22T01:05:54.827Z,93891.06
2023-05-22T01:08:21.709Z,93894.44
2023-05-22T01:10:54.501Z,93891.28
2023-05-22T01:13:39.748Z,93886.72
2023-05-22T01:16:30.410Z,93889.06
2023-05-22T01:19:31.995Z,93888.66
2023-05-22T01:22:21.740Z,93890.53
2023-05-22T01:24:54.398Z,93884.78
2023-05-22T01:27:39.069Z,93888.66
2023-05-22T01:30:21.218Z,93890.22
2023-05-22T01:32:49.805Z,93887.25
2023-05-22T01:35:21.062Z,93885.66
2023-05-22T01:37:48.531Z,93881.38
2023-05-22T01:40:15.980Z,93879.41
2023-05-22T01:42:42.799Z,93876.31
2023-05-22T01:45:11.602Z,93870.56
2023-05-22T01:47:38.378Z,93872.91
2023-05-22T01:50:06.481Z,93876.31
2023-05-22T01:53:24.876Z,93888.25
2023-05-22T01:56:07.935Z,93882.94
2023-05-22T01:58:45.219Z,93872.09
2023-05-22T02:01:14.334Z,93877.09
2023-05-22T02:03:42.745Z,93877.06
2023-05-22T02:06:13.133Z,93877.00
2023-05-22T02:08:42.024Z,93872.00
2023-05-22T02:11:11.227Z,93881.63
2023-05-22T02:13:38.886Z,93877.06
2023-05-22T02:16:07.579Z,93876.69
2023-05-22T02:18:34.358Z,93875.91
2023-05-22T02:21:02.644Z,93876.44
2023-05-22T02:23:29.950Z,93873.31
2023-05-22T02:25:57.253Z,93874.84
2023-05-22T02:28:24.265Z,93871.72
2023-05-22T02:30:50.992Z,93877.09
2023-05-22T02:33:18.679Z,93884.91
2023-05-22T02:35:45.917Z,93877.94
2023-05-22T02:38:13.080Z,93878.34
2023-05-22T02:40:40.263Z,93876.97
2023-05-22T02:43:07.240Z,93876.19
2023-05-22T02:45:33.986Z,93874.19
2023-05-22T02:48:03.577Z,93872.63
2023-05-22T02:50:30.639Z,93871.94
2023-05-22T02:52:57.309Z,93873.53
2023-05-22T02:55:23.992Z,93867.38
2023-05-22T02:57:50.837Z,93868.13
2023-05-22T03:00:18.078Z,93870.44
2023-05-22T03:02:44.830Z,93858.50
2023-05-22T03:05:11.755Z,93863.47
2023-05-22T03:07:38.350Z,93862.72
2023-05-22T03:10:05.432Z,93866.59
2023-05-22T03:12:32.167Z,93871.97
2023-05-22T03:14:58.840Z,93866.19
2023-05-22T03:17:25.632Z,93865.03
2023-05-22T03:19:52.436Z,93865.81
2023-05-22T03:22:19.176Z,93866.97
2023-05-22T03:24:45.832Z,93875.06
2023-05-22T03:27:16.367Z,93873.50
2023-05-22T03:29:43.065Z,93878.13
2023-05-22T03:32:09.773Z,93875.38
2023-05-22T03:34:36.736Z,93871.59
2023-05-22T03:37:03.544Z,93878.84
2023-05-22T03:39:30.259Z,93877.31
2023-05-22T03:41:57.029Z,93868.47
2023-05-22T03:44:23.710Z,93866.88
2023-05-22T03:46:51.304Z,93876.44
2023-05-22T03:49:18.058Z,93876.47
2023-05-22T03:51:44.821Z,93871.56
2023-05-22T03:54:11.524Z,93874.25
2023-05-22T03:56:38.180Z,93876.47
2023-05-22T03:59:04.801Z,93874.88
2023-05-22T04:01:31.597Z,93870.31
2023-05-22T04:03:58.250Z,93874.94
2023-05-22T04:06:25.720Z,93877.16
2023-05-22T04:08:52.523Z,93885.75
2023-05-22T04:11:19.841Z,93878.34
2023-05-22T04:13:50.402Z,93882.53
2023-05-22T04:16:17.719Z,93872.50
2023-05-22T04:18:44.781Z,93881.00
2023-05-22T04:21:12.883Z,93875.31
2023-05-22T04:23:43.347Z,93885.28
2023-05-22T04:26:10.560Z,93882.94
2023-05-22T04:28:38.037Z,93875.91
2023-05-22T04:31:06.562Z,93881.63
2023-05-22T04:33:34.610Z,93886.03
2023-05-22T04:36:03.087Z,93893.47
2023-05-22T04:38:29.712Z,93891.91
2023-05-22T04:40:57.161Z,93885.59
2023-05-22T04:43:26.670Z,93895.94
2023-05-22T04:45:54.235Z,93887.06
2023-05-22T04:48:21.196Z,93896.28
2023-05-22T04:50:48.376Z,93890.06
2023-05-22T04:53:15.188Z,93890.47
2023-05-22T04:55:42.088Z,93891.25
2023-05-22T04:58:09.082Z,93887.78
2023-05-22T05:00:35.940Z,93893.16
2023-05-22T05:03:03.682Z,93893.25
2023-05-22T05:05:30.509Z,93896.94
2023-05-22T05:07:57.150Z,93900.72
2023-05-22T05:10:23.792Z,93901.47
2023-05-22T05:12:50.458Z,93905.13
2023-05-22T05:15:17.341Z,93910.34
2023-05-22T05:17:44.072Z,93908.44
2023-05-22T05:20:14.419Z,93898.00
2023-05-22T05:22:41.409Z,93905.44
2023-05-22T05:25:09.617Z,93901.94
2023-05-22T05:27:38.246Z,93900.22
2023-05-22T05:30:05.376Z,93906.47
2023-05-22T05:32:32.306Z,93902.56
2023-05-22T05:34:58.951Z,93904.06
2023-05-22T05:37:26.148Z,93906.25
2023-05-22T05:39:52.831Z,93906.59
2023-05-22T05:42:19.666Z,93912.81
2023-05-22T05:44:46.442Z,93917.00
2023-05-22T05:47:13.794Z,93909.50
2023-05-22T05:49:40.532Z,93916.16
2023-05-22T05:52:08.086Z,93914.13
2023-05-22T05:54:34.720Z,93917.44
2023-05-22T05:57:02.561Z,93909.81
2023-05-22T05:59:29.179Z,93913.03
2023-05-22T06:01:55.957Z,93907.06
2023-05-22T06:04:22.635Z,93912.88
2023-05-22T06:06:49.355Z,93910.31
2023-05-22T06:09:16.461Z,93915.16
2023-05-22T06:11:43.236Z,93909.47
2023-05-22T06:14:10.319Z,93917.06
2023-05-22T06:16:37.096Z,93910.75
2023-05-22T06:19:04.781Z,93918.03
2023-05-22T06:21:31.573Z,93916.44
2023-05-22T06:23:58.856Z,93913.38
2023-05-22T06:26:26.001Z,93914.66
2023-05-22T06:28:54.105Z,93913.63
2023-05-22T06:31:22.906Z,93920.53
2023-05-22T06:33:50.024Z,93914.97
2023-05-22T06:36:17.620Z,93905.78
2023-05-22T06:38:46.100Z,93913.72
2023-05-22T06:41:12.704Z,93914.09
2023-05-22T06:43:39.386Z,93913.91
2023-05-22T06:46:07.243Z,93908.44
2023-05-22T06:48:35.294Z,93905.16
2023-05-22T06:51:02.266Z,93904.09
2023-05-22T06:53:28.947Z,93920.69
2023-05-22T06:55:56.373Z,93913.94
2023-05-22T06:58:23.015Z,93913.41
2023-05-22T07:00:49.695Z,93915.78
2023-05-22T07:03:16.422Z,93908.31
2023-05-22T07:05:43.367Z,93918.16
2023-05-22T07:08:10.421Z,93918.44
2023-05-22T07:10:37.271Z,93910.41
2023-05-22T07:13:04.178Z,93909.78
2023-05-22T07:15:30.870Z,93905.16
2023-05-22T07:17:57.694Z,93901.53
2023-05-22T07:20:26.356Z,93908.59
2023-05-22T07:22:53.010Z,93902.50
2023-05-22T07:25:19.687Z,93904.72
2023-05-22T07:27:46.354Z,93904.25
2023-05-22T07:30:13.386Z,93906.78
2023-05-22T07:32:40.335Z,93907.97
2023-05-22T07:35:07.597Z,93903.38
2023-05-22T07:37:36.068Z,93904.41
2023-05-22T07:40:05.750Z,93898.31
2023-05-22T07:42:32.619Z,93900.00
2023-05-22T07:44:59.240Z,93907.81
2023-05-22T07:47:26.084Z,93907.84
2023-05-22T07:49:52.800Z,93901.34
2023-05-22T07:52:19.870Z,93900.66
2023-05-22T07:54:46.553Z,93896.31
2023-05-22T07:57:13.542Z,93904.50
2023-05-22T07:59:40.158Z,93890.16
2023-05-22T08:02:08.529Z,93894.03
2023-05-22T08:04:35.616Z,93890.19
2023-05-22T08:07:02.643Z,93895.09
2023-05-22T08:09:29.311Z,93899.63
2023-05-22T08:11:55.989Z,93906.19
2023-05-22T08:14:22.971Z,93902.59
2023-05-22T08:16:49.730Z,93894.06
2023-05-22T08:19:16.700Z,93901.72
2023-05-22T08:21:43.384Z,93905.38
2023-05-22T08:24:10.085Z,93898.59
2023-05-22T08:26:36.935Z,93897.75
2023-05-22T08:29:03.584Z,93889.97
2023-05-22T08:31:30.335Z,93892.06
2023-05-22T08:34:02.759Z,93889.50
2023-05-22T08:36:31.689Z,93893.84
2023-05-22T08:39:02.060Z,93896.59
2023-05-22T08:41:29.807Z,93898.59
2023-05-22T08:43:56.693Z,93899.56
2023-05-22T08:46:26.526Z,93896.97
2023-05-22T08:48:57.240Z,93893.88
2023-05-22T08:51:28.286Z,93886.00
2023-05-22T08:53:57.465Z,93888.06
2023-05-22T08:56:25.178Z,93892.22
2023-05-22T08:58:54.478Z,93894.56
2023-05-22T09:01:22.479Z,93888.59
2023-05-22T09:03:51.433Z,93879.28
2023-05-22T09:06:18.700Z,93881.63
2023-05-22T09:08:46.174Z,93878.78
2023-05-22T09:11:13.359Z,93874.66
2023-05-22T09:13:41.310Z,93890.72
2023-05-22T09:16:12.874Z,93886.25
2023-05-22T09:18:40.720Z,93880.72
2023-05-22T09:21:21.631Z,93878.63
2023-05-22T09:23:54.718Z,93877.88
2023-05-22T09:26:21.652Z,93873.28
2023-05-22T09:28:48.363Z,93876.78
2023-05-22T09:31:15.249Z,93869.91
2023-05-22T09:33:44.236Z,93871.97
2023-05-22T09:36:11.321Z,93876.16
2023-05-22T09:38:38.964Z,93878.25
2023-05-22T09:41:05.898Z,93875.78
2023-05-22T09:43:33.887Z,93874.16
2023-05-22T09:46:03.189Z,93877.44
2023-05-22T09:48:34.494Z,93878.69
2023-05-22T09:51:02.453Z,93884.84
2023-05-22T09:53:31.790Z,93887.72
2023-05-22T09:56:00.235Z,93880.94
2023-05-22T09:58:30.922Z,93878.38
2023-05-22T10:00:58.283Z,93883.88
2023-05-22T10:03:27.357Z,93884.09
2023-05-22T10:05:56.504Z,93889.59
2023-05-22T10:08:28.895Z,93889.56
2023-05-22T10:10:55.986Z,93893.19
2023-05-22T10:13:26.308Z,93882.63
2023-05-22T10:15:54.467Z,93891.97
2023-05-22T10:18:21.933Z,93887.88
2023-05-22T10:20:49.070Z,93891.56
2023-05-22T10:23:18.661Z,93893.88
2023-05-22T10:25:46.146Z,93883.38
2023-05-22T10:28:20.913Z,93883.63
2023-05-22T10:30:54.209Z,93892.81
2023-05-22T10:33:25.336Z,93889.31
2023-05-22T10:35:59.186Z,93896.78
2023-05-22T10:38:51.648Z,93895.06
2023-05-22T10:41:18.881Z,93892.38
2023-05-22T10:43:50.036Z,93904.16
2023-05-22T10:46:17.200Z,93904.91
2023-05-22T10:48:48.730Z,93928.06
2023-05-22T10:51:21.214Z,93925.84
2023-05-22T10:54:08.122Z,93917.19
2023-05-22T10:56:35.765Z,93911.94
2023-05-22T10:59:08.465Z,93914.16
2023-05-22T11:01:38.363Z,93915.84
2023-05-22T11:04:06.911Z,93922.28
2023-05-22T11:06:43.641Z,93916.00
2023-05-22T11:09:32.779Z,93912.53
2023-05-22T11:12:20.908Z,93910.28
2023-05-22T11:15:06.209Z,93903.72
2023-05-22T11:17:37.016Z,93894.66
2023-05-22T11:20:07.450Z,93902.31
2023-05-22T11:22:35.081Z,93893.75
2023-05-22T11:25:06.335Z,93888.66
2023-05-22T11:27:33.525Z,93879.72
2023-05-22T11:30:02.337Z,93882.75
2023-05-22T11:32:29.642Z,93881.53
2023-05-22T11:34:57.616Z,93888.97
2023-05-22T11:37:24.555Z,93890.88
2023-05-22T11:39:58.960Z,93926.25
2023-05-22T11:42:25.666Z,93951.19
2023-05-22T11:44:52.452Z,93952.13
2023-05-22T11:47:19.207Z,93946.75
2023-05-22T11:49:46.389Z,93944.91
2023-05-22T11:52:13.279Z,93939.34
2023-05-22T11:54:39.945Z,93943.09
2023-05-22T11:57:08.557Z,93939.38
2023-05-22T11:59:35.295Z,93941.06
2023-05-22T12:02:02.731Z,93935.34
2023-05-22T12:04:29.833Z,93944.75
2023-05-22T12:06:57.117Z,93940.28
2023-05-22T12:09:24.334Z,93939.75
2023-05-22T12:11:51.104Z,93922.50
2023-05-22T12:14:17.867Z,93930.50
2023-05-22T12:16:44.708Z,93929.56
2023-05-22T12:19:13.142Z,93936.72
2023-05-22T12:21:42.071Z,93939.44
2023-05-22T12:24:08.815Z,93927.09
2023-05-22T12:26:36.665Z,93919.59
2023-05-22T12:29:06.498Z,93914.44
2023-05-22T12:31:37.459Z,93908.97
2023-05-22T12:34:06.845Z,93908.38
2023-05-22T12:36:39.593Z,93910.00
2023-05-22T12:39:16.983Z,93905.22
2023-05-22T12:41:45.088Z,93905.19
2023-05-22T12:44:12.536Z,93901.44
2023-05-22T12:46:41.237Z,93902.97
2023-05-22T12:49:08.324Z,93904.69
2023-05-22T12:51:35.624Z,93909.63
2023-05-22T12:54:03.188Z,93905.97
2023-05-22T12:56:30.887Z,93905.47
2023-05-22T12:58:58.631Z,93907.13
2023-05-22T13:01:26.682Z,93890.75
2023-05-22T13:03:53.762Z,93897.13
2023-05-22T13:06:20.813Z,93896.69
2023-05-22T13:08:47.637Z,93889.31
2023-05-22T13:11:14.472Z,93890.19
2023-05-22T13:13:41.204Z,93887.09
2023-05-22T13:16:10.383Z,93879.97
2023-05-22T13:18:37.624Z,93878.19
2023-05-22T13:21:05.184Z,93877.81
2023-05-22T13:23:32.748Z,93871.34
2023-05-22T13:26:02.164Z,93872.06
2023-05-22T13:28:29.221Z,93875.25
2023-05-22T13:30:56.616Z,93866.78
2023-05-22T13:33:23.358Z,93865.94
2023-05-22T13:35:50.181Z,93861.22
2023-05-22T13:38:16.993Z,93860.56
2023-05-22T13:40:44.676Z,93854.41
2023-05-22T13:43:12.471Z,93851.31
2023-05-22T13:45:39.545Z,93846.22
2023-05-22T13:48:06.928Z,93844.66
2023-05-22T13:50:33.817Z,93842.94
2023-05-22T13:53:00.528Z,93836.50
2023-05-22T13:55:27.263Z,93839.00
2023-05-22T13:57:53.972Z,93842.41
2023-05-22T14:00:21.060Z,93830.81
2023-05-22T14:02:48.181Z,93836.84
2023-05-22T14:05:15.248Z,93830.22
2023-05-22T14:07:42.037Z,93833.78
2023-05-22T14:10:09.416Z,93833.47
2023-05-22T14:12:37.326Z,93829.63
2023-05-22T14:15:04.367Z,93830.94
2023-05-22T14:17:31.126Z,93817.00
2023-05-22T14:19:59.142Z,93823.81
2023-05-22T14:22:25.933Z,93826.63
2023-05-22T14:24:52.883Z,93823.19
2023-05-22T14:27:19.535Z,93831.81
2023-05-22T14:29:47.318Z,93828.66
2023-05-22T14:32:13.953Z,93834.63
2023-05-22T14:34:40.818Z,93828.94
2023-05-22T14:37:07.535Z,93828.34
2023-05-22T14:39:34.244Z,93837.00
2023-05-22T14:42:01.052Z,93836.13
2023-05-22T14:44:27.683Z,93835.75
2023-05-22T14:46:54.714Z,93832.00
2023-05-22T14:49:21.511Z,93841.25
2023-05-22T14:51:48.445Z,93849.75
2023-05-22T14:54:18.076Z,93844.41
2023-05-22T14:56:45.740Z,93846.63
2023-05-22T14:59:12.720Z,93845.94
2023-05-22T15:01:39.843Z,93852.75
2023-05-22T15:04:08.073Z,93847.19
2023-05-22T15:06:35.176Z,93851.25
2023-05-22T15:09:01.894Z,93858.19
2023-05-22T15:11:28.600Z,93859.31
2023-05-22T15:13:55.561Z,93867.44
2023-05-22T15:16:22.732Z,93861.91
2023-05-22T15:18:49.483Z,93877.97
2023-05-22T15:21:16.881Z,93862.41
2023-05-22T15:23:43.635Z,93869.56
2023-05-22T15:26:10.530Z,93871.00
2023-05-22T15:28:37.328Z,93867.38
2023-05-22T15:31:03.969Z,93865.69
2023-05-22T15:33:30.883Z,93868.69
2023-05-22T15:35:57.585Z,93865.31
2023-05-22T15:38:36.553Z,93865.94
2023-05-22T15:41:03.263Z,93868.13
2023-05-22T15:43:30.029Z,93869.66
2023-05-22T15:45:56.723Z,93874.16
2023-05-22T15:48:23.403Z,93881.25
2023-05-22T15:50:50.015Z,93880.59
2023-05-22T15:53:16.733Z,93878.75
2023-05-22T15:55:43.420Z,93884.94
2023-05-22T15:58:10.001Z,93885.75
2023-05-22T16:00:41.157Z,93896.28
2023-05-22T16:03:08.931Z,93887.03
2023-05-22T16:05:39.573Z,93875.78
2023-05-22T16:08:07.305Z,93873.22
2023-05-22T16:10:34.547Z,93865.91
2023-05-22T16:13:01.305Z,93874.00
2023-05-22T16:15:28.001Z,93867.81
2023-05-22T16:17:54.766Z,93865.03
2023-05-22T16:20:22.723Z,93855.84
2023-05-22T16:22:49.395Z,93849.22
2023-05-22T16:25:17.469Z,93849.41
2023-05-22T16:27:44.575Z,93839.13
2023-05-22T16:30:12.162Z,93827.00
2023-05-22T16:32:39.217Z,93829.19
2023-05-22T16:35:06.278Z,93837.63
2023-05-22T16:37:33.753Z,93832.88
2023-05-22T16:40:00.680Z,93827.28
2023-05-22T16:42:27.563Z,93830.94
2023-05-22T16:44:54.193Z,93837.41
2023-05-22T16:47:21.737Z,93841.72
2023-05-22T16:49:48.433Z,93838.72
2023-05-22T16:52:16.432Z,93845.34
2023-05-22T16:54:43.074Z,93857.69
2023-05-22T16:57:09.789Z,93859.34
2023-05-22T16:59:36.442Z,93866.25
2023-05-22T17:02:03.830Z,93871.66
2023-05-22T17:04:31.114Z,93882.53
2023-05-22T17:06:57.712Z,93874.91
2023-05-22T17:09:24.354Z,93876.63
2023-05-22T17:11:51.067Z,93879.59
2023-05-22T17:14:17.746Z,93888.50
2023-05-22T17:16:44.507Z,93888.19
2023-05-22T17:19:11.313Z,93884.47
2023-05-22T17:21:38.020Z,93886.31
2023-05-22T17:24:04.977Z,93897.75
2023-05-22T17:26:33.579Z,93892.78
2023-05-22T17:29:00.287Z,93905.41
2023-05-22T17:31:27.336Z,93901.88
2023-05-22T17:33:54.136Z,93900.41
2023-05-22T17:36:21.086Z,93906.22
2023-05-22T17:38:47.790Z,93915.25
2023-05-22T17:41:14.421Z,93925.81
2023-05-22T17:43:41.083Z,93916.56
2023-05-22T17:46:07.739Z,93920.72
2023-05-22T17:48:34.539Z,93933.56
2023-05-22T17:51:01.214Z,93930.97
2023-05-22T17:53:32.097Z,93930.63
2023-05-22T17:55:58.748Z,93923.66
2023-05-22T17:58:25.416Z,93924.75
2023-05-22T18:00:52.212Z,93932.00
2023-05-22T18:03:22.196Z,93942.91
2023-05-22T18:05:50.053Z,93951.38
2023-05-22T18:08:17.540Z,93946.38
2023-05-22T18:10:44.271Z,93951.72
2023-05-22T18:13:11.133Z,93945.00
2023-05-22T18:15:37.873Z,93948.66
2023-05-22T18:18:04.778Z,93941.59
2023-05-22T18:20:33.125Z,93950.72
2023-05-22T18:23:00.369Z,93941.38
2023-05-22T18:25:27.061Z,93945.06
2023-05-22T18:27:55.170Z,93939.56
2023-05-22T18:30:22.040Z,93948.44
2023-05-22T18:32:48.768Z,93947.41
2023-05-22T18:35:15.506Z,93949.84
2023-05-22T18:37:42.174Z,93956.06
2023-05-22T18:40:10.962Z,93960.13
2023-05-22T18:42:37.662Z,93969.50
2023-05-22T18:45:05.986Z,94016.91
2023-05-22T18:47:32.736Z,94021.38
2023-05-22T18:49:59.467Z,94037.22
2023-05-22T18:52:26.265Z,94025.16
2023-05-22T18:54:52.955Z,94025.94
2023-05-22T18:57:19.621Z,94032.56
2023-05-22T18:59:47.132Z,94043.06
2023-05-22T19:02:16.484Z,94043.41
2023-05-22T19:04:43.679Z,94047.66
2023-05-22T19:07:10.411Z,94052.91
2023-05-22T19:09:37.467Z,94054.13
2023-05-22T19:12:05.552Z,94039.81
2023-05-22T19:14:32.289Z,94042.09
2023-05-22T19:17:02.034Z,94049.78
2023-05-22T19:19:31.691Z,94042.13
2023-05-22T19:21:58.440Z,94039.91
2023-05-22T19:24:26.495Z,94043.38
2023-05-22T19:26:53.105Z,94035.28
2023-05-22T19:29:19.775Z,94026.34
2023-05-22T19:31:46.412Z,94021.56
2023-05-22T19:34:13.164Z,94018.88
2023-05-22T19:36:39.838Z,94014.72
2023-05-22T19:39:06.792Z,94012.06
2023-05-22T19:41:33.436Z,93999.72
2023-05-22T19:44:00.166Z,93997.44
2023-05-22T19:46:27.016Z,94000.63
2023-05-22T19:48:53.902Z,93994.34
2023-05-22T19:51:20.669Z,93992.78
2023-05-22T19:53:47.420Z,93986.19
2023-05-22T19:56:14.053Z,93977.31
2023-05-22T19:58:40.859Z,93967.22
2023-05-22T20:01:07.556Z,93974.91
2023-05-22T20:03:34.449Z,93976.00
2023-05-22T20:06:02.068Z,93968.00
2023-05-22T20:08:29.087Z,93981.13
2023-05-22T20:10:55.827Z,93976.06
2023-05-22T20:13:22.488Z,93990.09
2023-05-22T20:15:51.264Z,93998.97
2023-05-22T20:18:18.680Z,93988.97
2023-05-22T20:20:45.410Z,93991.28
2023-05-22T20:23:12.051Z,94004.78
2023-05-22T20:25:39.411Z,94001.81
2023-05-22T20:28:06.623Z,93999.09
2023-05-22T20:30:33.238Z,94003.31
2023-05-22T20:32:59.969Z,93997.50
2023-05-22T20:35:26.939Z,93998.25
2023-05-22T20:37:53.906Z,93997.06
2023-05-22T20:40:20.664Z,94001.38
2023-05-22T20:42:47.704Z,93994.44
2023-05-22T20:45:16.018Z,94001.75
2023-05-22T20:47:43.397Z,94007.59
2023-05-22T20:50:11.278Z,94008.31
2023-05-22T20:52:38.269Z,94022.91
2023-05-22T20:55:05.804Z,94026.38
2023-05-22T20:57:32.598Z,94027.94
2023-05-22T20:59:59.479Z,94032.97
2023-05-22T21:02:26.338Z,94033.78
2023-05-22T21:04:53.592Z,94035.34
2023-05-22T21:07:20.315Z,94032.63
2023-05-22T21:09:46.996Z,94036.47
2023-05-22T21:12:13.815Z,94036.47
2023-05-22T21:14:40.943Z,94027.63
2023-05-22T21:17:07.749Z,94029.56
2023-05-22T21:19:34.513Z,94031.47
2023-05-22T21:22:02.077Z,94024.94
2023-05-22T21:24:28.716Z,94030.31
2023-05-22T21:26:55.478Z,94029.94
2023-05-22T21:29:22.183Z,94031.50
2023-05-22T21:31:48.914Z,94036.47
2023-05-22T21:34:15.730Z,94022.63
2023-05-22T21:36:42.424Z,94029.09
2023-05-22T21:39:09.047Z,94027.13
2023-05-22T21:41:35.935Z,94034.03
2023-05-22T21:44:02.643Z,94027.97
2023-05-22T21:46:29.295Z,94039.22
2023-05-22T21:48:56.183Z,94033.41
2023-05-22T21:51:22.904Z,94031.47
2023-05-22T21:53:49.570Z,94033.00
2023-05-22T21:56:16.316Z,94032.59
2023-05-22T21:58:43.043Z,94031.81
2023-05-22T22:01:10.228Z,94029.09
2023-05-22T22:03:39.120Z,94030.63
2023-05-22T22:06:06.400Z,94028.78
2023-05-22T22:08:33.692Z,94027.63
2023-05-22T22:11:00.537Z,94023.78
2023-05-22T22:13:27.478Z,94025.31
2023-05-22T22:15:54.256Z,94023.69
2023-05-22T22:18:21.042Z,94037.56
2023-05-22T22:20:50.151Z,94033.00
2023-05-22T22:23:17.117Z,94030.69
2023-05-22T22:25:44.570Z,94036.78
2023-05-22T22:28:11.691Z,94022.22
2023-05-22T22:30:38.703Z,94031.50
2023-05-22T22:33:06.676Z,94039.19
2023-05-22T22:35:33.998Z,94041.50
2023-05-22T22:38:01.107Z,94038.78
2023-05-22T22:40:27.822Z,94041.09
2023-05-22T22:42:55.993Z,94032.63
2023-05-22T22:45:23.320Z,94036.09
2023-05-22T22:47:50.854Z,94030.69
2023-05-22T22:50:18.233Z,94034.13
2023-05-22T22:52:48.494Z,94028.38
2023-05-22T22:55:16.288Z,94018.38
2023-05-22T22:57:44.766Z,94021.44
2023-05-22T23:00:16.112Z,94012.16
2023-05-22T23:02:43.464Z,94020.38
2023-05-22T23:05:11.023Z,94019.81
2023-05-22T23:07:38.193Z,94013.16
2023-05-22T23:10:05.175Z,94017.81
2023-05-22T23:12:35.234Z,94025.34
2023-05-22T23:15:02.923Z,94013.88
2023-05-22T23:17:30.228Z,94015.00
2023-05-22T23:19:57.368Z,94009.63
2023-05-22T23:22:26.490Z,94008.25
2023-05-22T23:24:53.181Z,94016.19
2023-05-22T23:27:19.802Z,94017.16
2023-05-22T23:29:46.519Z,94003.44
2023-05-22T23:32:14.743Z,94002.78
2023-05-22T23:34:42.445Z,93995.81
2023-05-22T23:37:10.132Z,93992.47
2023-05-22T23:39:36.820Z,93987.50
2023-05-22T23:42:03.926Z,93997.50
2023-05-22T23:44:31.368Z,94013.28
2023-05-22T23:46:58.213Z,94018.50
2023-05-22T23:49:24.930Z,94023.28
2023-05-22T23:51:51.668Z,94022.28
2023-05-22T23:54:18.393Z,94017.78
2023-05-22T23:56:45.362Z,94020.09
2023-05-22T23:59:12.046Z,94017.53
